sensor_id;sensor_type;location;lat;lon;timestamp;pressure;altitude;pressure_sealevel;temperature;humidity
4392;BME280;2210;51.938;8.488;2023-04-28T00:03:28;100432.66;;;9.19;56.29
4392;BME280;2210;51.938;8.488;2023-04-28T00:07:28;100423.75;;;9.24;55.17
4392;BME280;2210;51.938;8.488;2023-04-28T00:11:31;100418.59;;;9.27;55.42
4392;BME280;2210;51.938;8.488;2023-04-28T00:15:31;100412.41;;;9.32;56.11
4392;BME280;2210;51.938;8.488;2023-04-28T00:19:32;100411.19;;;9.28;55.44
4392;BME280;2210;51.938;8.488;2023-04-28T00:23:32;100403.78;;;9.28;55.55
4392;BME280;2210;51.938;8.488;2023-04-28T00:27:41;100392.06;;;9.33;55.66
4392;BME280;2210;51.938;8.488;2023-04-28T00:31:45;100387.19;;;9.35;55.26
4392;BME280;2210;51.938;8.488;2023-04-28T00:35:45;100393.16;;;9.32;56.23
4392;BME280;2210;51.938;8.488;2023-04-28T00:39:45;100383.81;;;9.33;56.67
4392;BME280;2210;51.938;8.488;2023-04-28T00:43:46;100377.47;;;9.33;56.48
4392;BME280;2210;51.938;8.488;2023-04-28T00:47:50;100371.59;;;9.29;57.05
4392;BME280;2210;51.938;8.488;2023-04-28T00:51:50;100366.56;;;9.26;57.43
4392;BME280;2210;51.938;8.488;2023-04-28T00:55:51;100372.31;;;9.24;56.48
4392;BME280;2210;51.938;8.488;2023-04-28T00:59:53;100378.63;;;9.25;56.83
4392;BME280;2210;51.938;8.488;2023-04-28T01:03:53;100367.41;;;9.26;57.02
4392;BME280;2210;51.938;8.488;2023-04-28T01:07:56;100365.03;;;9.30;57.05
4392;BME280;2210;51.938;8.488;2023-04-28T01:11:56;100358.94;;;9.28;57.35
4392;BME280;2210;51.938;8.488;2023-04-28T01:16:00;100353.88;;;9.25;57.14
4392;BME280;2210;51.938;8.488;2023-04-28T01:20:00;100356.78;;;9.30;58.00
4392;BME280;2210;51.938;8.488;2023-04-28T01:24:04;100334.84;;;9.23;57.30
4392;BME280;2210;51.938;8.488;2023-04-28T01:28:09;100328.53;;;9.23;57.99
4392;BME280;2210;51.938;8.488;2023-04-28T01:32:09;100340.59;;;9.22;58.51
4392;BME280;2210;51.938;8.488;2023-04-28T01:36:16;100332.25;;;9.28;58.37
4392;BME280;2210;51.938;8.488;2023-04-28T01:40:16;100319.31;;;9.29;59.86
4392;BME280;2210;51.938;8.488;2023-04-28T01:44:16;100315.34;;;9.25;58.45
4392;BME280;2210;51.938;8.488;2023-04-28T01:48:26;100320.03;;;9.24;57.85
4392;BME280;2210;51.938;8.488;2023-04-28T01:52:26;100312.75;;;9.30;59.18
4392;BME280;2210;51.938;8.488;2023-04-28T01:56:27;100302.69;;;9.24;58.54
4392;BME280;2210;51.938;8.488;2023-04-28T02:00:27;100302.09;;;9.22;58.57
4392;BME280;2210;51.938;8.488;2023-04-28T02:04:27;100297.19;;;9.24;58.58
4392;BME280;2210;51.938;8.488;2023-04-28T02:08:37;100292.03;;;9.27;58.51
4392;BME280;2210;51.938;8.488;2023-04-28T02:12:37;100291.22;;;9.27;58.82
4392;BME280;2210;51.938;8.488;2023-04-28T02:16:43;100285.72;;;9.27;59.03
4392;BME280;2210;51.938;8.488;2023-04-28T02:20:44;100289.06;;;9.29;59.41
4392;BME280;2210;51.938;8.488;2023-04-28T02:24:47;100282.97;;;9.27;59.10
4392;BME280;2210;51.938;8.488;2023-04-28T02:28:50;100280.50;;;9.37;59.24
4392;BME280;2210;51.938;8.488;2023-04-28T02:32:51;100279.06;;;9.35;59.60
4392;BME280;2210;51.938;8.488;2023-04-28T02:36:51;100282.63;;;9.35;58.85
4392;BME280;2210;51.938;8.488;2023-04-28T02:44:59;100266.13;;;9.35;59.61
4392;BME280;2210;51.938;8.488;2023-04-28T02:48:59;100254.50;;;9.33;59.79
4392;BME280;2210;51.938;8.488;2023-04-28T02:53:02;100256.81;;;9.36;59.94
4392;BME280;2210;51.938;8.488;2023-04-28T02:57:03;100247.00;;;9.40;60.37
4392;BME280;2210;51.938;8.488;2023-04-28T03:01:03;100244.00;;;9.42;60.00
4392;BME280;2210;51.938;8.488;2023-04-28T03:05:04;100238.13;;;9.38;59.67
4392;BME280;2210;51.938;8.488;2023-04-28T03:09:04;100240.44;;;9.41;59.66
4392;BME280;2210;51.938;8.488;2023-04-28T03:13:05;100233.81;;;9.42;59.71
4392;BME280;2210;51.938;8.488;2023-04-28T03:17:06;100227.88;;;9.45;60.51
4392;BME280;2210;51.938;8.488;2023-04-28T03:21:06;100227.00;;;9.45;59.97
4392;BME280;2210;51.938;8.488;2023-04-28T03:25:07;100228.44;;;9.48;59.99
4392;BME280;2210;51.938;8.488;2023-04-28T03:29:07;100229.06;;;9.50;60.28
4392;BME280;2210;51.938;8.488;2023-04-28T03:33:10;100221.03;;;9.48;60.26
4392;BME280;2210;51.938;8.488;2023-04-28T03:37:11;100213.00;;;9.47;60.45
4392;BME280;2210;51.938;8.488;2023-04-28T03:41:11;100210.00;;;9.48;60.62
4392;BME280;2210;51.938;8.488;2023-04-28T03:45:11;100203.69;;;9.48;61.06
4392;BME280;2210;51.938;8.488;2023-04-28T03:49:15;100207.06;;;9.50;61.62
4392;BME280;2210;51.938;8.488;2023-04-28T03:53:15;100208.72;;;9.51;61.04
4392;BME280;2210;51.938;8.488;2023-04-28T03:57:16;100201.06;;;9.53;60.84
4392;BME280;2210;51.938;8.488;2023-04-28T04:01:19;100202.13;;;9.52;61.40
4392;BME280;2210;51.938;8.488;2023-04-28T04:05:20;100196.38;;;9.53;60.82
4392;BME280;2210;51.938;8.488;2023-04-28T04:09:20;100202.75;;;9.54;61.14
4392;BME280;2210;51.938;8.488;2023-04-28T04:13:21;100201.06;;;9.53;61.67
4392;BME280;2210;51.938;8.488;2023-04-28T04:17:21;100206.09;;;9.56;61.32
4392;BME280;2210;51.938;8.488;2023-04-28T04:21:21;100195.06;;;9.56;61.54
4392;BME280;2210;51.938;8.488;2023-04-28T04:25:22;100195.06;;;9.56;61.71
4392;BME280;2210;51.938;8.488;2023-04-28T04:29:22;100199.25;;;9.58;62.46
4392;BME280;2210;51.938;8.488;2023-04-28T04:33:22;100204.78;;;9.58;61.99
4392;BME280;2210;51.938;8.488;2023-04-28T04:37:23;100197.81;;;9.56;63.25
4392;BME280;2210;51.938;8.488;2023-04-28T04:41:26;100194.50;;;9.54;64.62
4392;BME280;2210;51.938;8.488;2023-04-28T04:45:26;100196.03;;;9.50;66.04
4392;BME280;2210;51.938;8.488;2023-04-28T04:49:27;100190.66;;;9.43;66.83
4392;BME280;2210;51.938;8.488;2023-04-28T04:53:27;100188.97;;;9.42;67.17
4392;BME280;2210;51.938;8.488;2023-04-28T04:57:27;100190.28;;;9.39;67.99
4392;BME280;2210;51.938;8.488;2023-04-28T05:01:31;100191.97;;;9.40;67.18
4392;BME280;2210;51.938;8.488;2023-04-28T05:05:34;100180.00;;;9.47;67.91
4392;BME280;2210;51.938;8.488;2023-04-28T05:09:40;100175.34;;;9.47;68.36
4392;BME280;2210;51.938;8.488;2023-04-28T05:13:41;100163.59;;;9.52;67.28
4392;BME280;2210;51.938;8.488;2023-04-28T05:17:44;100164.22;;;9.54;67.28
4392;BME280;2210;51.938;8.488;2023-04-28T05:21:44;100171.50;;;9.60;67.84
4392;BME280;2210;51.938;8.488;2023-04-28T05:25:46;100158.94;;;9.64;68.74
4392;BME280;2210;51.938;8.488;2023-04-28T05:29:46;100157.50;;;9.73;68.40
4392;BME280;2210;51.938;8.488;2023-04-28T05:33:47;100162.03;;;9.79;68.47
4392;BME280;2210;51.938;8.488;2023-04-28T05:37:50;100166.81;;;9.84;69.04
4392;BME280;2210;51.938;8.488;2023-04-28T05:41:59;100154.03;;;9.78;69.93
4392;BME280;2210;51.938;8.488;2023-04-28T05:45:59;100156.53;;;9.79;69.66
4392;BME280;2210;51.938;8.488;2023-04-28T05:50:00;100160.84;;;9.75;70.62
4392;BME280;2210;51.938;8.488;2023-04-28T05:54:00;100156.41;;;9.74;70.53
4392;BME280;2210;51.938;8.488;2023-04-28T05:58:01;100151.03;;;9.79;71.59
4392;BME280;2210;51.938;8.488;2023-04-28T06:02:05;100149.09;;;9.80;70.97
4392;BME280;2210;51.938;8.488;2023-04-28T06:06:06;100146.72;;;9.84;72.32
4392;BME280;2210;51.938;8.488;2023-04-28T06:10:07;100149.72;;;9.82;72.77
4392;BME280;2210;51.938;8.488;2023-04-28T06:14:08;100158.44;;;9.91;72.24
4392;BME280;2210;51.938;8.488;2023-04-28T06:18:08;100155.66;;;9.91;73.04
4392;BME280;2210;51.938;8.488;2023-04-28T06:22:11;100145.84;;;9.95;73.93
4392;BME280;2210;51.938;8.488;2023-04-28T06:26:15;100146.53;;;10.02;74.95
4392;BME280;2210;51.938;8.488;2023-04-28T06:30:21;100142.34;;;10.00;75.81
4392;BME280;2210;51.938;8.488;2023-04-28T06:34:28;100145.56;;;10.08;76.50
4392;BME280;2210;51.938;8.488;2023-04-28T06:38:30;100132.16;;;10.12;77.41
4392;BME280;2210;51.938;8.488;2023-04-28T06:42:30;100131.16;;;10.18;77.84
4392;BME280;2210;51.938;8.488;2023-04-28T06:46:30;100130.66;;;10.21;78.32
4392;BME280;2210;51.938;8.488;2023-04-28T06:50:31;100130.22;;;10.24;78.83
4392;BME280;2210;51.938;8.488;2023-04-28T06:54:31;100121.59;;;10.21;79.12
4392;BME280;2210;51.938;8.488;2023-04-28T06:58:31;100116.53;;;10.29;80.02
4392;BME280;2210;51.938;8.488;2023-04-28T07:02:31;100114.25;;;10.38;81.59
4392;BME280;2210;51.938;8.488;2023-04-28T07:06:32;100112.66;;;10.42;81.17
4392;BME280;2210;51.938;8.488;2023-04-28T07:10:32;100106.06;;;10.43;81.51
4392;BME280;2210;51.938;8.488;2023-04-28T07:14:32;100113.34;;;10.50;81.73
4392;BME280;2210;51.938;8.488;2023-04-28T07:18:32;100101.91;;;10.58;82.58
4392;BME280;2210;51.938;8.488;2023-04-28T07:22:33;100106.44;;;10.64;83.77
4392;BME280;2210;51.938;8.488;2023-04-28T07:26:33;100092.84;;;10.74;84.70
4392;BME280;2210;51.938;8.488;2023-04-28T07:30:33;100088.56;;;10.84;85.59
4392;BME280;2210;51.938;8.488;2023-04-28T07:34:34;100085.59;;;10.85;86.50
4392;BME280;2210;51.938;8.488;2023-04-28T07:38:37;100089.00;;;10.92;86.54
4392;BME280;2210;51.938;8.488;2023-04-28T07:42:37;100092.59;;;10.93;87.68
4392;BME280;2210;51.938;8.488;2023-04-28T07:46:38;100089.09;;;10.98;88.22
4392;BME280;2210;51.938;8.488;2023-04-28T07:50:38;100086.09;;;10.99;88.96
4392;BME280;2210;51.938;8.488;2023-04-28T07:54:41;100077.91;;;11.04;89.58
4392;BME280;2210;51.938;8.488;2023-04-28T07:58:48;100073.13;;;11.17;90.63
4392;BME280;2210;51.938;8.488;2023-04-28T08:02:48;100066.13;;;11.31;89.83
4392;BME280;2210;51.938;8.488;2023-04-28T08:06:48;100067.88;;;11.37;89.73
4392;BME280;2210;51.938;8.488;2023-04-28T08:10:48;100062.44;;;11.42;89.61
4392;BME280;2210;51.938;8.488;2023-04-28T08:14:49;100058.09;;;11.46;90.75
4392;BME280;2210;51.938;8.488;2023-04-28T08:18:50;100040.63;;;11.63;89.90
4392;BME280;2210;51.938;8.488;2023-04-28T08:22:50;100036.50;;;11.88;89.71
4392;BME280;2210;51.938;8.488;2023-04-28T08:26:50;100036.34;;;12.22;88.25
4392;BME280;2210;51.938;8.488;2023-04-28T08:30:50;100040.94;;;12.38;87.00
4392;BME280;2210;51.938;8.488;2023-04-28T08:34:52;100052.38;;;12.47;85.43
4392;BME280;2210;51.938;8.488;2023-04-28T08:38:52;100063.22;;;12.54;85.15
4392;BME280;2210;51.938;8.488;2023-04-28T08:42:56;100065.78;;;12.33;86.10
4392;BME280;2210;51.938;8.488;2023-04-28T08:46:57;100065.56;;;12.40;86.74
4392;BME280;2210;51.938;8.488;2023-04-28T08:51:02;100059.81;;;12.46;87.73
4392;BME280;2210;51.938;8.488;2023-04-28T08:55:10;100059.31;;;12.50;87.20
4392;BME280;2210;51.938;8.488;2023-04-28T08:59:15;100067.66;;;12.55;87.55
4392;BME280;2210;51.938;8.488;2023-04-28T09:03:15;100075.47;;;12.63;87.46
4392;BME280;2210;51.938;8.488;2023-04-28T09:07:15;100070.31;;;12.44;87.84
4392;BME280;2210;51.938;8.488;2023-04-28T09:11:16;100074.50;;;12.47;88.65
4392;BME280;2210;51.938;8.488;2023-04-28T09:15:34;100074.03;;;12.55;89.56
4392;BME280;2210;51.938;8.488;2023-04-28T09:19:36;100077.06;;;12.54;89.04
4392;BME280;2210;51.938;8.488;2023-04-28T09:23:47;100073.19;;;12.55;89.57
4392;BME280;2210;51.938;8.488;2023-04-28T09:27:48;100065.41;;;12.52;90.49
4392;BME280;2210;51.938;8.488;2023-04-28T09:31:52;100053.13;;;12.37;98.48
4392;BME280;2210;51.938;8.488;2023-04-28T09:35:54;100044.22;;;12.08;100.00
4392;BME280;2210;51.938;8.488;2023-04-28T09:39:54;100038.19;;;11.89;100.00
4392;BME280;2210;51.938;8.488;2023-04-28T09:44:14;100022.81;;;11.76;100.00
4392;BME280;2210;51.938;8.488;2023-04-28T09:48:15;100020.31;;;11.74;100.00
4392;BME280;2210;51.938;8.488;2023-04-28T09:52:16;100024.31;;;11.84;100.00
4392;BME280;2210;51.938;8.488;2023-04-28T09:56:23;100035.13;;;12.07;100.00
4392;BME280;2210;51.938;8.488;2023-04-28T10:00:26;100038.19;;;12.11;100.00
4392;BME280;2210;51.938;8.488;2023-04-28T10:04:30;100029.63;;;12.12;100.00
4392;BME280;2210;51.938;8.488;2023-04-28T10:08:32;100033.03;;;12.20;100.00
4392;BME280;2210;51.938;8.488;2023-04-28T10:12:39;100011.41;;;12.17;100.00
4392;BME280;2210;51.938;8.488;2023-04-28T10:16:42;100024.09;;;12.40;100.00
4392;BME280;2210;51.938;8.488;2023-04-28T10:20:48;100014.84;;;12.56;100.00
4392;BME280;2210;51.938;8.488;2023-04-28T10:25:11;100009.22;;;12.78;100.00
4392;BME280;2210;51.938;8.488;2023-04-28T10:29:24;100010.91;;;12.79;100.00
4392;BME280;2210;51.938;8.488;2023-04-28T10:33:25;100010.94;;;12.85;100.00
4392;BME280;2210;51.938;8.488;2023-04-28T10:42:50;100008.41;;;12.78;100.00
4392;BME280;2210;51.938;8.488;2023-04-28T10:47:06;100004.88;;;12.88;100.00
4392;BME280;2210;51.938;8.488;2023-04-28T10:55:33;100002.50;;;12.69;100.00
4392;BME280;2210;51.938;8.488;2023-04-28T10:59:40;99993.66;;;12.72;100.00
4392;BME280;2210;51.938;8.488;2023-04-28T11:12:28;99986.13;;;13.00;100.00
4392;BME280;2210;51.938;8.488;2023-04-28T11:16:31;99980.69;;;13.15;100.00
4392;BME280;2210;51.938;8.488;2023-04-28T11:20:33;99979.13;;;13.35;100.00
4392;BME280;2210;51.938;8.488;2023-04-28T11:24:33;99978.66;;;13.43;100.00
4392;BME280;2210;51.938;8.488;2023-04-28T11:28:33;99974.78;;;13.44;100.00
4392;BME280;2210;51.938;8.488;2023-04-28T11:32:35;99966.56;;;13.70;100.00
4392;BME280;2210;51.938;8.488;2023-04-28T11:36:38;99960.78;;;13.92;99.21
4392;BME280;2210;51.938;8.488;2023-04-28T11:41:00;99955.56;;;14.16;100.00
4392;BME280;2210;51.938;8.488;2023-04-28T11:45:01;99948.38;;;14.41;96.73
4392;BME280;2210;51.938;8.488;2023-04-28T11:49:05;99955.59;;;14.37;93.98
4392;BME280;2210;51.938;8.488;2023-04-28T11:53:05;99955.56;;;14.27;94.45
4392;BME280;2210;51.938;8.488;2023-04-28T11:57:17;99955.84;;;14.46;95.33
4392;BME280;2210;51.938;8.488;2023-04-28T12:01:20;99955.59;;;14.42;92.67
4392;BME280;2210;51.938;8.488;2023-04-28T12:05:20;99943.09;;;14.60;92.78
4392;BME280;2210;51.938;8.488;2023-04-28T12:09:24;99940.25;;;15.01;92.35
4392;BME280;2210;51.938;8.488;2023-04-28T12:13:28;99933.38;;;14.94;90.97
4392;BME280;2210;51.938;8.488;2023-04-28T12:17:47;99930.53;;;15.09;89.28
4392;BME280;2210;51.938;8.488;2023-04-28T12:22:00;99921.59;;;15.28;91.14
4392;BME280;2210;51.938;8.488;2023-04-28T12:26:04;99916.41;;;15.00;90.41
4392;BME280;2210;51.938;8.488;2023-04-28T12:34:26;99928.78;;;15.34;88.93
4392;BME280;2210;51.938;8.488;2023-04-28T12:38:31;99927.31;;;15.52;88.65
4392;BME280;2210;51.938;8.488;2023-04-28T12:42:32;99917.59;;;15.49;88.66
4392;BME280;2210;51.938;8.488;2023-04-28T12:46:32;99916.31;;;15.87;87.60
4392;BME280;2210;51.938;8.488;2023-04-28T12:50:41;99916.06;;;15.83;87.56
4392;BME280;2210;51.938;8.488;2023-04-28T12:54:45;99913.59;;;15.71;86.23
4392;BME280;2210;51.938;8.488;2023-04-28T12:58:48;99914.72;;;15.70;88.55
4392;BME280;2210;51.938;8.488;2023-04-28T13:02:49;99920.84;;;15.67;88.65
4392;BME280;2210;51.938;8.488;2023-04-28T13:06:49;99919.78;;;15.58;90.24
4392;BME280;2210;51.938;8.488;2023-04-28T13:10:58;99926.16;;;15.63;89.05
4392;BME280;2210;51.938;8.488;2023-04-28T13:15:08;99922.56;;;15.63;90.91
4392;BME280;2210;51.938;8.488;2023-04-28T13:19:09;99910.28;;;15.69;91.93
4392;BME280;2210;51.938;8.488;2023-04-28T13:23:12;99913.03;;;15.69;91.04
4392;BME280;2210;51.938;8.488;2023-04-28T13:27:31;99907.50;;;15.64;90.59
4392;BME280;2210;51.938;8.488;2023-04-28T13:31:32;99906.69;;;15.63;91.87
4392;BME280;2210;51.938;8.488;2023-04-28T13:35:32;99906.41;;;15.65;91.45
4392;BME280;2210;51.938;8.488;2023-04-28T13:39:35;99902.06;;;15.48;91.96
4392;BME280;2210;51.938;8.488;2023-04-28T13:43:36;99901.53;;;15.46;92.83
4392;BME280;2210;51.938;8.488;2023-04-28T13:47:42;99901.47;;;15.51;93.49
4392;BME280;2210;51.938;8.488;2023-04-28T13:51:45;99894.03;;;15.42;92.32
4392;BME280;2210;51.938;8.488;2023-04-28T13:55:56;99903.47;;;15.41;93.85
4392;BME280;2210;51.938;8.488;2023-04-28T14:00:03;99898.19;;;15.44;94.09
4392;BME280;2210;51.938;8.488;2023-04-28T14:04:07;99901.19;;;15.53;93.80
4392;BME280;2210;51.938;8.488;2023-04-28T14:08:10;99900.38;;;15.47;93.91
4392;BME280;2210;51.938;8.488;2023-04-28T14:12:11;99894.59;;;15.44;94.15
4392;BME280;2210;51.938;8.488;2023-04-28T14:16:15;99891.53;;;15.40;95.03
4392;BME280;2210;51.938;8.488;2023-04-28T14:20:16;99894.91;;;15.32;98.55
4392;BME280;2210;51.938;8.488;2023-04-28T14:24:16;99889.16;;;15.18;100.00
4392;BME280;2210;51.938;8.488;2023-04-28T14:28:17;99890.78;;;15.19;100.00
4392;BME280;2210;51.938;8.488;2023-04-28T14:32:21;99885.53;;;15.17;100.00
4392;BME280;2210;51.938;8.488;2023-04-28T14:36:24;99883.59;;;15.18;100.00
4392;BME280;2210;51.938;8.488;2023-04-28T14:40:28;99885.53;;;15.12;100.00
4392;BME280;2210;51.938;8.488;2023-04-28T14:44:31;99880.84;;;15.08;100.00
4392;BME280;2210;51.938;8.488;2023-04-28T14:48:31;99882.81;;;15.07;100.00
4392;BME280;2210;51.938;8.488;2023-04-28T14:52:32;99873.94;;;15.00;100.00
4392;BME280;2210;51.938;8.488;2023-04-28T14:56:32;99872.88;;;14.91;100.00
4392;BME280;2210;51.938;8.488;2023-04-28T15:00:36;99867.84;;;14.98;100.00
4392;BME280;2210;51.938;8.488;2023-04-28T15:04:37;99868.94;;;14.97;100.00
4392;BME280;2210;51.938;8.488;2023-04-28T15:08:37;99865.06;;;15.03;100.00
4392;BME280;2210;51.938;8.488;2023-04-28T15:12:39;99857.22;;;15.15;100.00
4392;BME280;2210;51.938;8.488;2023-04-28T15:16:40;99854.16;;;15.17;100.00
4392;BME280;2210;51.938;8.488;2023-04-28T15:20:41;99855.75;;;15.28;100.00
4392;BME280;2210;51.938;8.488;2023-04-28T15:24:49;99824.25;;;15.54;100.00
4392;BME280;2210;51.938;8.488;2023-04-28T15:28:53;99834.78;;;15.51;100.00
4392;BME280;2210;51.938;8.488;2023-04-28T15:32:53;99843.97;;;15.52;100.00
4392;BME280;2210;51.938;8.488;2023-04-28T15:36:59;99844.16;;;15.66;100.00
4392;BME280;2210;51.938;8.488;2023-04-28T15:41:03;99842.75;;;15.68;100.00
4392;BME280;2210;51.938;8.488;2023-04-28T15:45:07;99852.47;;;15.71;100.00
4392;BME280;2210;51.938;8.488;2023-04-28T15:49:09;99848.00;;;15.75;100.00
4392;BME280;2210;51.938;8.488;2023-04-28T15:53:13;99843.56;;;15.69;100.00
4392;BME280;2210;51.938;8.488;2023-04-28T15:57:14;99853.06;;;15.63;100.00
4392;BME280;2210;51.938;8.488;2023-04-28T16:01:14;99848.38;;;15.58;100.00
4392;BME280;2210;51.938;8.488;2023-04-28T16:05:15;99844.78;;;15.58;100.00
4392;BME280;2210;51.938;8.488;2023-04-28T16:09:15;99845.81;;;15.67;100.00
4392;BME280;2210;51.938;8.488;2023-04-28T16:13:15;99848.63;;;15.62;100.00
4392;BME280;2210;51.938;8.488;2023-04-28T16:17:19;99843.84;;;15.73;100.00
4392;BME280;2210;51.938;8.488;2023-04-28T16:21:19;99848.00;;;15.75;100.00
4392;BME280;2210;51.938;8.488;2023-04-28T16:25:20;99845.81;;;15.67;100.00
4392;BME280;2210;51.938;8.488;2023-04-28T16:29:23;99844.69;;;15.68;100.00
4392;BME280;2210;51.938;8.488;2023-04-28T16:33:23;99840.31;;;15.62;100.00
4392;BME280;2210;51.938;8.488;2023-04-28T16:37:26;99848.63;;;15.62;100.00
4392;BME280;2210;51.938;8.488;2023-04-28T16:41:27;99837.53;;;15.62;100.00
4392;BME280;2210;51.938;8.488;2023-04-28T16:45:27;99848.38;;;15.58;100.00
4392;BME280;2210;51.938;8.488;2023-04-28T16:49:28;99837.53;;;15.62;100.00
4392;BME280;2210;51.938;8.488;2023-04-28T16:53:28;99835.81;;;15.66;100.00
4392;BME280;2210;51.938;8.488;2023-04-28T16:57:28;99841.09;;;15.67;100.00
4392;BME280;2210;51.938;8.488;2023-04-28T17:01:34;99837.47;;;15.72;100.00
4392;BME280;2210;51.938;8.488;2023-04-28T17:05:35;99835.22;;;15.74;100.00
4392;BME280;2210;51.938;8.488;2023-04-28T17:09:35;99838.81;;;15.80;100.00
4392;BME280;2210;51.938;8.488;2023-04-28T17:13:35;99841.03;;;15.78;100.00
4392;BME280;2210;51.938;8.488;2023-04-28T17:17:36;99829.06;;;15.77;100.00
4392;BME280;2210;51.938;8.488;2023-04-28T17:21:39;99836.88;;;15.75;100.00
4392;BME280;2210;51.938;8.488;2023-04-28T17:25:40;99831.91;;;15.72;100.00
4392;BME280;2210;51.938;8.488;2023-04-28T17:29:40;99844.41;;;15.70;100.00
4392;BME280;2210;51.938;8.488;2023-04-28T17:33:41;99842.47;;;15.70;100.00
4392;BME280;2210;51.938;8.488;2023-04-28T17:37:45;99856.09;;;15.66;100.00
4392;BME280;2210;51.938;8.488;2023-04-28T17:41:45;99863.94;;;15.54;100.00
4392;BME280;2210;51.938;8.488;2023-04-28T17:45:46;99875.38;;;15.47;100.00
4392;BME280;2210;51.938;8.488;2023-04-28T17:49:46;99878.19;;;15.42;100.00
4392;BME280;2210;51.938;8.488;2023-04-28T17:53:46;99886.56;;;15.37;100.00
4392;BME280;2210;51.938;8.488;2023-04-28T17:57:47;99884.38;;;15.29;100.00
4392;BME280;2210;51.938;8.488;2023-04-28T18:01:48;99888.28;;;15.28;100.00
4392;BME280;2210;51.938;8.488;2023-04-28T18:06:07;99897.19;;;15.25;100.00
4392;BME280;2210;51.938;8.488;2023-04-28T18:10:10;99897.75;;;15.16;100.00
4392;BME280;2210;51.938;8.488;2023-04-28T18:14:16;99898.09;;;14.99;100.00
4392;BME280;2210;51.938;8.488;2023-04-28T18:18:23;99904.75;;;14.93;100.00
4392;BME280;2210;51.938;8.488;2023-04-28T18:22:30;99905.06;;;14.87;100.00
4392;BME280;2210;51.938;8.488;2023-04-28T18:26:30;99916.19;;;14.76;100.00
4392;BME280;2210;51.938;8.488;2023-04-28T18:30:30;99915.06;;;14.62;100.00
4392;BME280;2210;51.938;8.488;2023-04-28T18:34:54;99918.97;;;14.35;100.00
4392;BME280;2210;51.938;8.488;2023-04-28T18:38:54;99919.25;;;14.18;100.00
4392;BME280;2210;51.938;8.488;2023-04-28T18:42:55;99926.75;;;14.12;100.00
4392;BME280;2210;51.938;8.488;2023-04-28T18:46:58;99925.63;;;14.13;100.00
4392;BME280;2210;51.938;8.488;2023-04-28T18:51:03;99932.56;;;14.11;100.00
4392;BME280;2210;51.938;8.488;2023-04-28T18:55:05;99934.22;;;14.12;100.00
4392;BME280;2210;51.938;8.488;2023-04-28T18:59:06;99924.78;;;14.13;100.00
4392;BME280;2210;51.938;8.488;2023-04-28T19:03:09;99936.44;;;14.10;100.00
4392;BME280;2210;51.938;8.488;2023-04-28T19:07:12;99946.16;;;14.12;100.00
4392;BME280;2210;51.938;8.488;2023-04-28T19:11:13;99945.03;;;14.08;100.00
4392;BME280;2210;51.938;8.488;2023-04-28T19:15:13;99958.03;;;14.08;100.00
4392;BME280;2210;51.938;8.488;2023-04-28T19:19:16;99966.06;;;14.09;100.00
4392;BME280;2210;51.938;8.488;2023-04-28T19:23:22;99963.31;;;14.09;100.00
4392;BME280;2210;51.938;8.488;2023-04-28T19:27:29;99969.41;;;14.06;100.00
4392;BME280;2210;51.938;8.488;2023-04-28T19:31:39;99983.00;;;14.08;100.00
4392;BME280;2210;51.938;8.488;2023-04-28T19:35:49;99979.41;;;14.07;100.00
4392;BME280;2210;51.938;8.488;2023-04-28T19:39:50;99986.59;;;14.03;100.00
4392;BME280;2210;51.938;8.488;2023-04-28T19:43:50;99981.31;;;13.96;100.00
4392;BME280;2210;51.938;8.488;2023-04-28T19:47:57;99986.03;;;13.96;100.00
4392;BME280;2210;51.938;8.488;2023-04-28T19:52:03;99997.66;;;13.93;100.00
4392;BME280;2210;51.938;8.488;2023-04-28T19:56:12;99983.25;;;13.91;100.00
4392;BME280;2210;51.938;8.488;2023-04-28T20:00:13;99991.00;;;13.94;100.00
4392;BME280;2210;51.938;8.488;2023-04-28T20:04:14;99983.75;;;13.77;100.00
4392;BME280;2210;51.938;8.488;2023-04-28T20:08:17;99990.41;;;13.76;100.00
4392;BME280;2210;51.938;8.488;2023-04-28T20:12:21;99995.66;;;13.78;100.00
4392;BME280;2210;51.938;8.488;2023-04-28T20:16:22;99986.53;;;13.77;100.00
4392;BME280;2210;51.938;8.488;2023-04-28T20:20:23;99994.28;;;13.80;100.00
4392;BME280;2210;51.938;8.488;2023-04-28T20:24:24;99983.47;;;13.79;100.00
4392;BME280;2210;51.938;8.488;2023-04-28T20:28:24;99988.75;;;13.80;100.00
4392;BME280;2210;51.938;8.488;2023-04-28T20:32:28;99993.16;;;13.76;100.00
4392;BME280;2210;51.938;8.488;2023-04-28T20:36:28;99990.38;;;13.71;100.00
4392;BME280;2210;51.938;8.488;2023-04-28T20:40:29;99990.38;;;13.71;100.00
4392;BME280;2210;51.938;8.488;2023-04-28T20:44:32;99989.25;;;13.67;100.00
4392;BME280;2210;51.938;8.488;2023-04-28T20:48:36;99992.28;;;13.65;100.00
4392;BME280;2210;51.938;8.488;2023-04-28T20:52:37;99986.75;;;13.65;100.00
4392;BME280;2210;51.938;8.488;2023-04-28T20:56:37;100001.47;;;13.66;100.00
4392;BME280;2210;51.938;8.488;2023-04-28T21:00:37;99992.56;;;13.64;100.00
4392;BME280;2210;51.938;8.488;2023-04-28T21:04:39;99995.91;;;13.61;100.00
4392;BME280;2210;51.938;8.488;2023-04-28T21:08:39;99993.66;;;13.63;100.00
4392;BME280;2210;51.938;8.488;2023-04-28T21:12:40;99988.09;;;13.58;100.00
4392;BME280;2210;51.938;8.488;2023-04-28T21:16:41;99987.31;;;13.62;100.00
4392;BME280;2210;51.938;8.488;2023-04-28T21:20:42;99988.94;;;13.53;100.00
4392;BME280;2210;51.938;8.488;2023-04-28T21:24:42;99994.50;;;13.58;100.00
4392;BME280;2210;51.938;8.488;2023-04-28T21:28:45;99989.75;;;13.54;100.00
4392;BME280;2210;51.938;8.488;2023-04-28T21:32:49;99994.75;;;13.52;100.00
4392;BME280;2210;51.938;8.488;2023-04-28T21:36:49;99996.13;;;13.54;100.00
4392;BME280;2210;51.938;8.488;2023-04-28T21:40:49;99984.75;;;13.51;100.00
4392;BME280;2210;51.938;8.488;2023-04-28T21:44:50;100000.25;;;13.46;100.00
4392;BME280;2210;51.938;8.488;2023-04-28T21:48:50;100006.38;;;13.54;100.00
4392;BME280;2210;51.938;8.488;2023-04-28T21:52:50;100000.81;;;13.48;100.00
4392;BME280;2210;51.938;8.488;2023-04-28T21:56:51;100004.41;;;13.49;100.00
4392;BME280;2210;51.938;8.488;2023-04-28T22:00:51;99997.75;;;13.45;100.00
4392;BME280;2210;51.938;8.488;2023-04-28T22:04:52;100000.25;;;13.46;100.00
4392;BME280;2210;51.938;8.488;2023-04-28T22:08:55;99996.06;;;13.44;100.00
4392;BME280;2210;51.938;8.488;2023-04-28T22:12:55;100001.94;;;13.47;100.00
4392;BME280;2210;51.938;8.488;2023-04-28T22:16:55;99992.50;;;13.43;100.00